createdAt,value
2017-12-01T00:00:26.384Z,98.10
2017-12-01T00:02:54.585Z,98.10
2017-12-01T00:05:22.045Z,98.10
2017-12-01T00:07:49.471Z,98.30
2017-12-01T00:10:17.682Z,98.40
2017-12-01T00:12:45.111Z,98.30
2017-12-01T00:15:13.316Z,98.40
2017-12-01T00:17:40.758Z,98.40
2017-12-01T00:20:08.184Z,98.20
2017-12-01T00:22:36.424Z,98.50
2017-12-01T00:25:03.867Z,98.30
2017-12-01T00:27:31.299Z,98.20
2017-12-01T00:29:58.732Z,98.50
2017-12-01T00:32:26.938Z,98.20
2017-12-01T00:34:54.381Z,98.10
2017-12-01T00:37:21.810Z,98.20
2017-12-01T00:39:49.244Z,98.10
2017-12-01T00:42:17.497Z,98.10
2017-12-01T00:44:44.937Z,98.10
2017-12-01T00:47:12.371Z,98.30
2017-12-01T00:49:40.586Z,97.90
2017-12-01T00:52:08.019Z,97.90
2017-12-01T00:54:35.452Z,98.00
2017-12-01T00:57:03.643Z,98.30
2017-12-01T00:59:31.903Z,98.10
2017-12-01T01:02:00.105Z,98.10
2017-12-01T01:04:27.543Z,97.70
2017-12-01T01:06:55.739Z,97.50
2017-12-01T01:09:23.176Z,97.50
2017-12-01T01:11:51.375Z,97.70
2017-12-01T01:14:18.810Z,97.70
2017-12-01T01:16:47.006Z,97.90
2017-12-01T01:19:14.444Z,97.90
2017-12-01T01:21:41.887Z,97.90
2017-12-01T01:24:09.343Z,97.80
2017-12-01T01:26:36.792Z,97.90
2017-12-01T01:29:04.207Z,97.90
2017-12-01T01:31:31.643Z,97.70
2017-12-01T01:33:59.067Z,97.60
2017-12-01T01:36:26.499Z,97.50
2017-12-01T01:38:53.940Z,97.50
2017-12-01T01:41:21.376Z,97.50
2017-12-01T01:43:48.801Z,97.60
2017-12-01T01:46:17.008Z,97.70
2017-12-01T01:48:44.435Z,97.70
2017-12-01T01:51:12.630Z,97.60
2017-12-01T01:53:40.060Z,97.60
2017-12-01T01:56:08.263Z,97.70
2017-12-01T01:58:35.697Z,97.70
2017-12-01T02:01:03.136Z,97.70
2017-12-01T02:03:30.595Z,97.80
2017-12-01T02:05:58.024Z,97.90
2017-12-01T02:08:25.468Z,98.20
2017-12-01T02:10:52.896Z,98.70
2017-12-01T02:13:20.332Z,98.90
2017-12-01T02:15:47.757Z,99.20
2017-12-01T02:18:15.201Z,99.30
2017-12-01T02:20:42.635Z,99.40
2017-12-01T02:23:10.071Z,99.40
2017-12-01T02:25:38.263Z,99.50
2017-12-01T02:28:05.700Z,99.50
2017-12-01T02:30:34.998Z,99.40
2017-12-01T02:33:02.427Z,99.40
2017-12-01T02:35:29.864Z,99.20
2017-12-01T02:37:57.332Z,99.20
2017-12-01T02:40:24.836Z,99.20
2017-12-01T02:42:52.227Z,99.30
2017-12-01T02:45:19.667Z,99.40
2017-12-01T02:47:47.128Z,99.30
2017-12-01T02:50:14.556Z,99.50
2017-12-01T02:52:42.756Z,99.40
2017-12-01T02:55:10.283Z,99.40
2017-12-01T02:57:38.483Z,99.30
2017-12-01T03:00:05.936Z,99.30
2017-12-01T03:02:34.133Z,99.30
2017-12-01T03:05:01.578Z,99.30
2017-12-01T03:07:28.998Z,99.30
2017-12-01T03:09:56.435Z,99.30
2017-12-01T03:12:23.872Z,98.90
2017-12-01T03:14:51.307Z,99.00
2017-12-01T03:17:18.739Z,99.00
2017-12-01T03:19:46.952Z,99.00
2017-12-01T03:22:14.384Z,99.00
2017-12-01T03:24:41.824Z,99.10
2017-12-01T03:27:10.032Z,98.90
2017-12-01T03:29:37.463Z,98.90
2017-12-01T03:32:05.674Z,99.10
2017-12-01T03:34:33.116Z,99.00
2017-12-01T03:37:00.552Z,98.90
2017-12-01T03:39:28.780Z,99.10
2017-12-01T03:41:56.220Z,99.10
2017-12-01T03:44:23.649Z,99.00
2017-12-01T03:46:51.096Z,98.90
2017-12-01T03:49:19.302Z,99.00
2017-12-01T03:51:46.740Z,99.00
2017-12-01T03:54:14.171Z,99.00
2017-12-01T03:56:42.452Z,98.50
2017-12-01T03:59:10.655Z,98.30
2017-12-01T04:01:38.089Z,98.30
2017-12-01T04:04:06.288Z,98.30
2017-12-01T04:06:33.878Z,98.30
2017-12-01T04:09:01.309Z,98.50
2017-12-01T04:11:28.755Z,98.50
2017-12-01T04:13:56.192Z,98.60
2017-12-01T04:16:24.395Z,98.40
2017-12-01T04:18:51.832Z,98.40
2017-12-01T04:21:20.028Z,98.30
2017-12-01T04:23:47.455Z,98.30
2017-12-01T04:26:15.652Z,98.30
2017-12-01T04:28:43.088Z,98.30
2017-12-01T04:31:11.284Z,98.20
2017-12-01T04:33:38.727Z,98.20
2017-12-01T04:36:06.940Z,98.30
2017-12-01T04:38:34.371Z,98.30
2017-12-01T04:41:01.800Z,98.30
2017-12-01T04:43:30.009Z,98.70
2017-12-01T04:45:57.436Z,98.40
2017-12-01T04:48:25.636Z,98.50
2017-12-01T04:50:53.068Z,98.50
2017-12-01T04:53:21.272Z,98.50
2017-12-01T04:55:48.699Z,98.50
2017-12-01T04:58:16.921Z,98.80
2017-12-01T05:00:44.378Z,98.80
2017-12-01T05:03:11.806Z,98.70
2017-12-01T05:05:39.293Z,98.60
2017-12-01T05:08:06.706Z,98.40
2017-12-01T05:10:34.976Z,98.40
2017-12-01T05:13:02.404Z,98.40
2017-12-01T05:15:29.843Z,98.20
2017-12-01T05:17:57.275Z,98.10
2017-12-01T05:20:24.721Z,98.10
2017-12-01T05:22:52.903Z,98.50
2017-12-01T05:25:20.352Z,98.50
2017-12-01T05:27:48.549Z,98.20
2017-12-01T05:30:15.993Z,98.20
2017-12-01T05:32:43.428Z,98.00
2017-12-01T05:35:11.631Z,98.60
2017-12-01T05:37:39.063Z,98.60
2017-12-01T05:40:07.337Z,99.00
2017-12-01T05:42:35.535Z,99.20
2017-12-01T05:45:02.959Z,99.10
2017-12-01T05:47:30.395Z,99.10
2017-12-01T05:49:57.830Z,99.10
2017-12-01T05:52:25.266Z,99.10
2017-12-01T05:54:52.698Z,98.90
2017-12-01T05:57:20.898Z,98.90
2017-12-01T05:59:49.344Z,98.90
2017-12-01T06:02:16.775Z,98.70
2017-12-01T06:04:44.217Z,98.50
2017-12-01T06:07:11.685Z,98.40
2017-12-01T06:09:39.178Z,98.40
2017-12-01T06:12:07.381Z,98.60
2017-12-01T06:14:34.814Z,98.60
2017-12-01T06:17:04.008Z,98.60
2017-12-01T06:19:32.212Z,98.90
2017-12-01T06:21:59.652Z,98.80
2017-12-01T06:24:29.864Z,98.70
2017-12-01T06:26:58.066Z,98.80
2017-12-01T06:29:25.589Z,98.80
2017-12-01T06:31:53.049Z,98.70
2017-12-01T06:34:20.500Z,98.90
2017-12-01T06:36:47.938Z,98.90
2017-12-01T06:39:15.459Z,98.70
2017-12-01T06:41:42.894Z,98.40
2017-12-01T06:44:11.102Z,98.20
2017-12-01T06:46:39.359Z,98.20
2017-12-01T06:49:06.820Z,98.30
2017-12-01T06:51:34.247Z,98.40
2017-12-01T06:54:01.673Z,98.60
2017-12-01T06:56:29.107Z,98.90
2017-12-01T06:58:56.547Z,98.90
2017-12-01T07:01:23.973Z,98.70
2017-12-01T07:03:52.179Z,98.60
2017-12-01T07:06:19.647Z,98.60
2017-12-01T07:08:47.061Z,98.50
2017-12-01T07:11:15.268Z,98.70
2017-12-01T07:13:42.705Z,98.70
2017-12-01T07:16:10.917Z,98.70
2017-12-01T07:18:38.387Z,98.70
2017-12-01T07:21:05.832Z,98.70
2017-12-01T07:23:33.370Z,98.70
2017-12-01T07:26:13.297Z,99.00
2017-12-01T07:28:41.487Z,99.20
2017-12-01T07:31:08.919Z,99.40
2017-12-01T07:33:36.387Z,99.10
2017-12-01T07:36:04.584Z,99.20
2017-12-01T07:38:32.020Z,99.20
2017-12-01T07:41:00.236Z,99.20
2017-12-01T07:43:27.676Z,99.20
2017-12-01T07:45:55.117Z,99.30
2017-12-01T07:48:23.321Z,99.10
2017-12-01T07:50:50.756Z,99.10
2017-12-01T07:53:18.969Z,99.00
2017-12-01T07:55:46.395Z,99.00
2017-12-01T07:58:13.844Z,99.20
2017-12-01T08:00:42.031Z,99.20
2017-12-01T08:03:09.467Z,99.20
2017-12-01T08:05:37.680Z,99.40
2017-12-01T08:08:05.108Z,99.30
2017-12-01T08:10:32.544Z,99.30
2017-12-01T08:13:00.743Z,99.00
2017-12-01T08:15:28.192Z,99.00
2017-12-01T08:18:08.290Z,98.90
2017-12-01T08:20:35.728Z,98.90
2017-12-01T08:23:03.158Z,98.90
2017-12-01T08:25:34.793Z,99.00
2017-12-01T08:28:02.215Z,99.00
2017-12-01T08:30:29.657Z,99.30
2017-12-01T08:32:57.102Z,98.80
2017-12-01T08:35:24.537Z,98.60
2017-12-01T08:37:52.742Z,98.70
2017-12-01T08:40:21.280Z,98.70
2017-12-01T08:42:49.478Z,98.90
2017-12-01T08:45:16.923Z,98.70
2017-12-01T08:47:45.115Z,98.40
2017-12-01T08:50:12.556Z,98.40
2017-12-01T08:52:40.751Z,98.50
2017-12-01T08:55:08.205Z,98.50
2017-12-01T08:57:35.632Z,98.50
2017-12-01T09:00:03.064Z,98.40
2017-12-01T09:02:30.502Z,98.50
2017-12-01T09:04:58.705Z,98.70
2017-12-01T09:07:31.209Z,98.40
2017-12-01T09:10:01.438Z,98.20
2017-12-01T09:12:28.881Z,98.20
2017-12-01T09:14:57.136Z,98.20
2017-12-01T09:17:24.547Z,98.20
2017-12-01T09:19:51.979Z,98.30
2017-12-01T09:22:20.198Z,98.30
2017-12-01T09:24:47.632Z,98.30
2017-12-01T09:27:15.077Z,98.20
2017-12-01T09:29:43.536Z,98.20
2017-12-01T09:32:10.976Z,98.20
2017-12-01T09:34:38.416Z,98.20
2017-12-01T09:37:05.856Z,98.20
2017-12-01T09:39:33.297Z,98.10
2017-12-01T09:42:01.741Z,98.10
2017-12-01T09:44:29.236Z,98.30
2017-12-01T09:46:56.666Z,98.40
2017-12-01T09:49:24.864Z,98.50
2017-12-01T09:51:52.296Z,98.40
2017-12-01T09:54:20.492Z,98.60
2017-12-01T09:56:47.925Z,98.60
2017-12-01T09:59:16.128Z,98.50
2017-12-01T10:01:43.556Z,98.50
2017-12-01T10:04:11.762Z,98.10
2017-12-01T10:06:39.231Z,98.10
2017-12-01T10:09:06.676Z,98.30
2017-12-01T10:11:34.103Z,98.10
2017-12-01T10:14:01.564Z,98.20
2017-12-01T10:16:29.766Z,98.30
2017-12-01T10:18:57.196Z,98.20
2017-12-01T10:21:25.407Z,97.20
2017-12-01T10:23:52.846Z,97.10
2017-12-01T10:26:20.275Z,97.20
2017-12-01T10:28:47.699Z,97.10
2017-12-01T10:31:15.143Z,96.70
2017-12-01T10:33:42.574Z,96.30
2017-12-01T10:36:10.780Z,96.20
2017-12-01T10:38:38.245Z,96.20
2017-12-01T10:41:05.673Z,96.50
2017-12-01T10:43:33.113Z,95.80
2017-12-01T10:46:01.342Z,96.60
2017-12-01T10:48:28.763Z,96.60
2017-12-01T10:50:56.191Z,96.50
2017-12-01T10:53:24.436Z,94.90
2017-12-01T10:55:51.884Z,94.90
2017-12-01T10:58:19.346Z,94.60
2017-12-01T11:00:46.763Z,94.60
2017-12-01T11:03:14.201Z,93.80
2017-12-01T11:05:42.393Z,93.90
2017-12-01T11:08:09.821Z,93.80
2017-12-01T11:10:38.025Z,94.30
2017-12-01T11:13:05.458Z,94.00
2017-12-01T11:15:33.699Z,94.30
2017-12-01T11:18:01.132Z,94.30
2017-12-01T11:20:28.560Z,94.80
2017-12-01T11:22:56.764Z,95.70
2017-12-01T11:25:24.196Z,95.70
2017-12-01T11:27:51.632Z,95.50
2017-12-01T11:30:19.832Z,94.70
2017-12-01T11:32:47.267Z,94.70
2017-12-01T11:35:15.500Z,95.80
2017-12-01T11:37:42.944Z,95.70
2017-12-01T11:40:10.380Z,95.50
2017-12-01T11:42:37.818Z,96.10
2017-12-01T11:45:06.017Z,96.00
2017-12-01T11:47:33.457Z,96.00
2017-12-01T11:50:01.657Z,96.40
2017-12-01T11:52:29.089Z,96.40
2017-12-01T11:54:56.533Z,96.60
2017-12-01T11:57:24.732Z,95.10
2017-12-01T11:59:52.159Z,95.10
2017-12-01T12:02:19.588Z,95.60
2017-12-01T12:04:47.031Z,96.20
2017-12-01T12:07:14.462Z,94.90
2017-12-01T12:09:41.896Z,94.80
2017-12-01T12:12:10.095Z,94.40
2017-12-01T12:14:37.527Z,94.40
2017-12-01T12:17:05.724Z,94.80
2017-12-01T12:19:33.157Z,94.80
2017-12-01T12:22:01.352Z,95.40
2017-12-01T12:24:28.793Z,95.40
2017-12-01T12:26:56.984Z,94.90
2017-12-01T12:29:24.411Z,94.90
2017-12-01T12:31:51.875Z,94.50
2017-12-01T12:34:19.282Z,94.90
2017-12-01T12:36:46.725Z,95.20
2017-12-01T12:39:14.143Z,95.40
2017-12-01T12:41:41.624Z,94.90
2017-12-01T12:44:09.061Z,95.30
2017-12-01T12:46:37.270Z,94.50
2017-12-01T12:49:04.684Z,94.50
2017-12-01T12:51:32.120Z,94.40
2017-12-01T12:53:59.564Z,94.40
2017-12-01T12:56:27.000Z,95.30
2017-12-01T12:58:54.448Z,95.20
2017-12-01T13:01:21.880Z,95.80
2017-12-01T13:03:50.096Z,95.30
2017-12-01T13:06:17.516Z,95.30
2017-12-01T13:08:45.712Z,94.60
2017-12-01T13:11:13.152Z,94.60
2017-12-01T13:13:40.714Z,94.80
2017-12-01T13:16:08.914Z,94.80
2017-12-01T13:18:36.428Z,94.80
2017-12-01T13:21:04.632Z,94.80
2017-12-01T13:23:32.073Z,94.60
2017-12-01T13:26:00.346Z,93.70
2017-12-01T13:28:28.610Z,93.20
2017-12-01T13:30:56.064Z,93.20
2017-12-01T13:33:23.493Z,93.60
2017-12-01T13:35:50.929Z,93.90
2017-12-01T13:38:18.354Z,93.10
2017-12-01T13:40:46.543Z,93.80
2017-12-01T13:43:14.091Z,93.80
2017-12-01T13:45:42.294Z,93.70
2017-12-01T13:48:09.856Z,93.70
2017-12-01T13:50:37.298Z,94.20
2017-12-01T13:53:05.480Z,94.70
2017-12-01T13:55:32.915Z,94.60
2017-12-01T13:58:00.356Z,94.10
2017-12-01T14:00:28.639Z,95.00
2017-12-01T14:02:56.827Z,95.40
2017-12-01T14:05:24.266Z,95.40
2017-12-01T14:07:52.466Z,94.30
2017-12-01T14:10:19.911Z,94.30
2017-12-01T14:12:48.117Z,94.90
2017-12-01T14:15:15.544Z,94.90
2017-12-01T14:17:43.745Z,94.80
2017-12-01T14:20:11.184Z,94.80
2017-12-01T14:22:38.815Z,94.50
2017-12-01T14:25:06.410Z,94.90
2017-12-01T14:27:33.814Z,95.10
2017-12-01T14:30:01.248Z,95.60
2017-12-01T14:32:28.676Z,95.50
2017-12-01T14:34:56.104Z,95.20
2017-12-01T14:37:23.539Z,95.00
2017-12-01T14:39:50.969Z,93.90
2017-12-01T14:42:18.403Z,93.90
2017-12-01T14:44:45.874Z,94.10
2017-12-01T14:47:13.310Z,93.80
2017-12-01T14:49:41.524Z,93.60
2017-12-01T14:52:08.968Z,93.60
2017-12-01T14:54:36.403Z,93.60
2017-12-01T14:57:03.853Z,94.00
2017-12-01T14:59:32.136Z,93.80
2017-12-01T15:01:59.568Z,93.80
2017-12-01T15:04:27.781Z,95.00
2017-12-01T15:06:55.473Z,94.80
2017-12-01T15:09:22.889Z,94.60
2017-12-01T15:11:50.321Z,95.00
2017-12-01T15:14:18.600Z,94.80
2017-12-01T15:16:46.023Z,94.80
2017-12-01T15:19:13.481Z,94.80
2017-12-01T15:21:40.929Z,95.10
2017-12-01T15:24:08.371Z,95.20
2017-12-01T15:26:35.790Z,95.60
2017-12-01T15:29:04.004Z,94.90
2017-12-01T15:31:31.428Z,94.90
2017-12-01T15:33:59.653Z,94.20
2017-12-01T15:36:27.857Z,93.90
2017-12-01T15:38:56.240Z,94.20
2017-12-01T15:41:24.512Z,94.70
2017-12-01T15:43:51.948Z,94.40
2017-12-01T15:46:19.393Z,94.10
2017-12-01T15:48:46.816Z,94.20
2017-12-01T15:51:14.253Z,94.50
2017-12-01T15:53:42.452Z,94.10
2017-12-01T15:56:09.888Z,94.10
2017-12-01T15:58:38.084Z,94.30
2017-12-01T16:01:05.532Z,94.30
2017-12-01T16:03:32.959Z,94.00
2017-12-01T16:06:00.397Z,94.40
2017-12-01T16:08:27.826Z,94.50
2017-12-01T16:10:55.336Z,94.40
2017-12-01T16:13:23.528Z,94.90
2017-12-01T16:15:53.021Z,94.60
2017-12-01T16:18:21.221Z,94.20
2017-12-01T16:20:50.701Z,94.20
2017-12-01T16:23:18.128Z,94.90
2017-12-01T16:25:45.566Z,94.50
2017-12-01T16:28:15.017Z,94.10
2017-12-01T16:30:43.224Z,94.00
2017-12-01T16:33:10.688Z,94.00
2017-12-01T16:35:38.108Z,94.00
2017-12-01T16:38:06.299Z,94.40
2017-12-01T16:40:34.501Z,94.80
2017-12-01T16:43:02.029Z,94.70
2017-12-01T16:45:29.459Z,94.60
2017-12-01T16:47:56.952Z,94.30
2017-12-01T16:50:24.368Z,95.10
2017-12-01T16:52:51.812Z,95.00
2017-12-01T16:55:19.256Z,94.00
2017-12-01T16:57:46.696Z,94.10
2017-12-01T17:00:14.109Z,94.30
2017-12-01T17:02:42.593Z,93.40
2017-12-01T17:05:10.788Z,93.70
2017-12-01T17:07:38.227Z,93.70
2017-12-01T17:10:06.419Z,94.80
2017-12-01T17:12:33.851Z,94.70
2017-12-01T17:15:01.284Z,94.30
2017-12-01T17:17:28.764Z,94.10
2017-12-01T17:19:56.194Z,94.30
2017-12-01T17:22:23.648Z,93.50
2017-12-01T17:24:51.089Z,94.70
2017-12-01T17:27:18.514Z,93.60
2017-12-01T17:29:46.780Z,94.80
2017-12-01T17:32:15.020Z,94.50
2017-12-01T17:34:42.460Z,94.50
2017-12-01T17:37:09.892Z,93.90
2017-12-01T17:39:37.344Z,94.10
2017-12-01T17:42:04.776Z,94.80
2017-12-01T17:44:32.974Z,95.10
2017-12-01T17:47:00.411Z,95.10
2017-12-01T17:49:27.973Z,95.20
2017-12-01T17:51:56.179Z,95.10
2017-12-01T17:54:24.634Z,95.10
2017-12-01T17:56:52.842Z,94.80
2017-12-01T17:59:20.267Z,94.70
2017-12-01T18:01:48.467Z,95.00
2017-12-01T18:04:15.905Z,95.00
2017-12-01T18:06:43.344Z,95.10
2017-12-01T18:09:10.771Z,95.20
2017-12-01T18:11:38.214Z,95.00
2017-12-01T18:14:05.646Z,95.10
2017-12-01T18:16:33.080Z,95.20
2017-12-01T18:19:01.302Z,95.20
2017-12-01T18:21:28.752Z,95.20
2017-12-01T18:23:56.160Z,95.20
2017-12-01T18:26:24.359Z,95.30
2017-12-01T18:28:51.791Z,95.40
2017-12-01T18:31:20.014Z,95.20
2017-12-01T18:33:47.457Z,95.20
2017-12-01T18:36:14.915Z,95.20
2017-12-01T18:38:42.356Z,95.20
2017-12-01T18:41:09.798Z,95.20
2017-12-01T18:43:37.231Z,94.90
2017-12-01T18:46:04.708Z,94.70
2017-12-01T18:48:32.150Z,94.80
2017-12-01T18:50:59.577Z,94.80
2017-12-01T18:53:28.012Z,94.90
2017-12-01T18:55:56.208Z,95.30
2017-12-01T18:58:23.639Z,95.30
2017-12-01T19:00:51.841Z,95.50
2017-12-01T19:03:19.280Z,95.50
2017-12-01T19:05:47.528Z,95.30
2017-12-01T19:08:14.976Z,95.30
2017-12-01T19:10:42.419Z,95.30
2017-12-01T19:13:09.864Z,95.40
2017-12-01T19:15:37.350Z,95.50
2017-12-01T19:18:04.760Z,95.60
2017-12-01T19:20:32.203Z,95.50
2017-12-01T19:23:00.413Z,95.50
2017-12-01T19:25:27.868Z,95.50
2017-12-01T19:27:55.298Z,95.60
2017-12-01T19:30:22.737Z,95.80
2017-12-01T19:32:50.936Z,96.00
2017-12-01T19:35:18.379Z,96.00
2017-12-01T19:37:45.849Z,96.10
2017-12-01T19:40:13.288Z,96.40
2017-12-01T19:42:41.480Z,96.60
2017-12-01T19:45:08.914Z,96.60
2017-12-01T19:47:37.182Z,97.00
2017-12-01T19:50:04.621Z,97.00
2017-12-01T19:52:32.046Z,97.00
2017-12-01T19:54:59.499Z,96.90
2017-12-01T19:57:26.927Z,96.70
2017-12-01T19:59:55.129Z,96.90
2017-12-01T20:02:22.572Z,96.90
2017-12-01T20:04:50.007Z,97.10
2017-12-01T20:07:18.211Z,97.20
2017-12-01T20:09:45.636Z,97.20
2017-12-01T20:12:13.859Z,97.30
2017-12-01T20:14:41.313Z,97.30
2017-12-01T20:17:08.822Z,97.50
2017-12-01T20:19:36.259Z,97.70
2017-12-01T20:22:03.768Z,97.50
2017-12-01T20:24:31.213Z,97.20
2017-12-01T20:26:59.424Z,97.40
2017-12-01T20:29:26.928Z,97.30
2017-12-01T20:31:55.143Z,97.80
2017-12-01T20:34:22.580Z,97.50
2017-12-01T20:36:50.093Z,97.60
2017-12-01T20:39:17.581Z,97.60
2017-12-01T20:41:46.781Z,97.80
2017-12-01T20:44:15.010Z,97.90
2017-12-01T20:46:43.432Z,97.90
2017-12-01T20:49:11.631Z,97.80
2017-12-01T20:51:39.073Z,97.80
2017-12-01T20:54:07.449Z,97.70
2017-12-01T20:56:35.637Z,97.10
2017-12-01T20:59:03.100Z,97.30
2017-12-01T21:01:32.278Z,97.40
2017-12-01T21:03:59.698Z,97.40
2017-12-01T21:06:27.164Z,97.60
2017-12-01T21:08:54.600Z,97.40
2017-12-01T21:11:25.996Z,97.20
2017-12-01T21:13:55.187Z,97.00
2017-12-01T21:16:22.627Z,97.00
2017-12-01T21:18:50.064Z,97.10
2017-12-01T21:21:18.492Z,97.30
2017-12-01T21:23:46.708Z,97.40
2017-12-01T21:26:14.148Z,97.40
2017-12-01T21:28:41.580Z,97.50
2017-12-01T21:31:09.783Z,97.80
2017-12-01T21:33:37.220Z,97.80
2017-12-01T21:36:05.415Z,98.00
2017-12-01T21:38:32.955Z,98.00
2017-12-01T21:41:00.372Z,98.00
2017-12-01T21:43:27.816Z,97.80
2017-12-01T21:45:55.257Z,97.90
2017-12-01T21:48:22.703Z,98.00
2017-12-01T21:50:50.123Z,97.90
2017-12-01T21:53:17.551Z,98.10
2017-12-01T21:55:44.984Z,97.90
2017-12-01T21:58:12.415Z,97.70
2017-12-01T22:00:39.899Z,97.90
2017-12-01T22:03:07.316Z,97.70
2017-12-01T22:05:35.507Z,97.70
2017-12-01T22:08:02.943Z,97.70
2017-12-01T22:10:31.144Z,97.90
2017-12-01T22:12:58.593Z,97.90
2017-12-01T22:15:26.780Z,97.60
2017-12-01T22:17:54.228Z,97.60
2017-12-01T22:20:21.659Z,97.50
2017-12-01T22:22:49.105Z,97.20
2017-12-01T22:25:16.532Z,97.10
2017-12-01T22:27:43.959Z,97.20
2017-12-01T22:30:11.393Z,97.40
2017-12-01T22:32:39.588Z,97.50
2017-12-01T22:35:07.023Z,97.40
2017-12-01T22:37:35.219Z,97.40
2017-12-01T22:40:02.664Z,97.40
2017-12-01T22:42:30.861Z,97.70
2017-12-01T22:44:58.309Z,97.70
2017-12-01T22:47:25.740Z,97.80
2017-12-01T22:49:53.175Z,97.70
2017-12-01T22:52:20.617Z,97.70
2017-12-01T22:54:48.832Z,97.80
2017-12-01T22:57:17.032Z,97.60
2017-12-01T22:59:44.480Z,97.60
2017-12-01T23:02:11.917Z,97.40
2017-12-01T23:04:40.132Z,97.00
2017-12-01T23:07:07.612Z,96.90
2017-12-01T23:09:35.043Z,96.80
2017-12-01T23:12:02.483Z,96.80
2017-12-01T23:14:29.923Z,96.80
2017-12-01T23:16:57.353Z,96.70
2017-12-01T23:19:24.792Z,96.80
2017-12-01T23:21:53.004Z,96.40
2017-12-01T23:24:20.440Z,96.40
2017-12-01T23:26:47.888Z,96.50
2017-12-01T23:29:15.327Z,96.40
2017-12-01T23:31:42.782Z,96.30
2017-12-01T23:34:10.215Z,96.30
2017-12-01T23:36:37.647Z,96.40
2017-12-01T23:39:05.855Z,96.80
2017-12-01T23:41:33.306Z,96.80
2017-12-01T23:44:00.731Z,96.80
2017-12-01T23:46:28.174Z,96.90
2017-12-01T23:48:55.621Z,96.90
2017-12-01T23:51:23.047Z,97.50
2017-12-01T23:53:50.487Z,97.50
2017-12-01T23:56:17.923Z,97.90
2017-12-01T23:58:46.132Z,97.90
